createdAt,value
2019-05-23T00:03:15.634Z,3.92
2019-05-23T00:08:21.585Z,2.90
2019-05-23T00:13:43.414Z,3.15
2019-05-23T00:18:47.301Z,3.22
2019-05-23T00:23:51.993Z,2.40
2019-05-23T00:29:09.699Z,3.42
2019-05-23T00:34:02.827Z,2.10
2019-05-23T00:39:09.214Z,2.17
2019-05-23T00:44:13.364Z,1.85
2019-05-23T00:49:18.657Z,3.50
2019-05-23T00:54:23.013Z,1.75
2019-05-23T00:59:27.999Z,2.10
2019-05-23T01:04:32.117Z,1.75
2019-05-23T01:09:38.513Z,1.92
2019-05-23T01:14:42.418Z,1.60
2019-05-23T01:19:47.219Z,1.82
2019-05-23T01:24:53.351Z,1.55
2019-05-23T01:29:58.193Z,2.35
2019-05-23T01:35:04.376Z,1.62
2019-05-23T01:40:09.078Z,2.02
2019-05-23T01:45:15.970Z,2.50
2019-05-23T01:50:26.212Z,1.42
2019-05-23T01:55:30.275Z,1.37
2019-05-23T02:00:34.471Z,2.30
2019-05-23T02:05:39.514Z,1.35
2019-05-23T02:10:43.904Z,1.40
2019-05-23T02:15:48.491Z,1.30
2019-05-23T02:20:52.802Z,1.42
2019-05-23T02:25:58.155Z,1.07
2019-05-23T02:31:02.831Z,2.10
2019-05-23T02:36:06.987Z,0.93
2019-05-23T02:41:21.219Z,0.57
2019-05-23T02:46:29.267Z,1.05
2019-05-23T02:51:37.346Z,1.12
2019-05-23T02:56:41.591Z,0.93
2019-05-23T03:02:13.922Z,1.65
2019-05-23T03:07:20.214Z,1.00
2019-05-23T03:12:25.944Z,1.30
2019-05-23T03:17:32.854Z,1.67
2019-05-23T03:22:48.518Z,1.45
2019-05-23T03:27:53.144Z,0.90
2019-05-23T03:33:02.058Z,1.07
2019-05-23T03:38:06.965Z,1.40
2019-05-23T03:43:13.799Z,1.22
2019-05-23T03:48:19.446Z,1.47
2019-05-23T03:53:25.637Z,1.90
2019-05-23T03:58:29.882Z,1.67
2019-05-23T04:03:39.716Z,2.30
2019-05-23T04:08:41.907Z,1.62
2019-05-23T04:13:45.953Z,3.25
2019-05-23T04:18:50.301Z,2.10
2019-05-23T04:23:54.341Z,2.52
2019-05-23T04:28:58.791Z,1.77
2019-05-23T04:34:02.991Z,3.08
2019-05-23T04:39:07.751Z,2.00
2019-05-23T04:44:11.640Z,5.05
2019-05-23T04:49:15.600Z,8.40
2019-05-23T04:54:19.426Z,4.28
2019-05-23T04:59:24.384Z,6.12
2019-05-23T05:04:28.681Z,4.00
2019-05-23T05:09:33.293Z,4.10
2019-05-23T05:14:37.486Z,5.00
2019-05-23T05:19:41.354Z,3.90
2019-05-23T05:24:45.661Z,4.22
2019-05-23T05:29:49.653Z,3.65
2019-05-23T05:34:53.841Z,3.20
2019-05-23T05:39:58.976Z,3.70
2019-05-23T05:45:03.863Z,4.92
2019-05-23T05:50:09.348Z,6.47
2019-05-23T05:55:13.814Z,4.20
2019-05-23T06:00:29.301Z,4.37
2019-05-23T06:05:46.732Z,3.77
2019-05-23T06:10:51.247Z,3.17
2019-05-23T06:15:55.175Z,2.70
2019-05-23T06:20:59.506Z,2.70
2019-05-23T06:26:03.758Z,2.58
2019-05-23T06:31:09.141Z,2.55
2019-05-23T06:36:13.624Z,2.50
2019-05-23T06:41:18.582Z,2.83
2019-05-23T06:46:22.494Z,2.30
2019-05-23T06:51:26.716Z,1.80
2019-05-23T06:56:30.502Z,2.47
2019-05-23T07:01:34.595Z,3.42
2019-05-23T07:06:38.591Z,3.87
2019-05-23T07:11:42.427Z,3.00
2019-05-23T07:16:50.088Z,3.20
2019-05-23T07:21:51.804Z,4.25
2019-05-23T07:26:55.790Z,4.20
2019-05-23T07:31:59.690Z,5.60
2019-05-23T07:37:04.778Z,7.40
2019-05-23T07:42:10.260Z,6.35
2019-05-23T07:47:15.007Z,5.92
2019-05-23T07:52:18.796Z,7.90
2019-05-23T07:57:24.223Z,8.35
2019-05-23T08:02:36.519Z,7.87
2019-05-23T08:07:40.982Z,7.72
2019-05-23T08:12:45.744Z,7.00
2019-05-23T08:17:50.170Z,6.58
2019-05-23T08:22:53.951Z,5.33
2019-05-23T08:27:58.438Z,6.53
2019-05-23T08:33:02.768Z,7.55
2019-05-23T08:38:08.173Z,5.03
2019-05-23T08:43:12.266Z,5.30
2019-05-23T08:48:16.497Z,7.08
2019-05-23T08:53:20.387Z,7.58
2019-05-23T08:58:30.170Z,7.58
2019-05-23T09:03:34.110Z,5.65
2019-05-23T09:08:38.877Z,5.55
2019-05-23T09:13:43.125Z,5.60
2019-05-23T09:18:46.899Z,5.87
2019-05-23T09:23:51.338Z,6.15
2019-05-23T09:28:55.219Z,5.87
2019-05-23T09:33:59.160Z,5.60
2019-05-23T09:39:04.622Z,8.75
2019-05-23T09:44:08.553Z,7.35
2019-05-23T09:49:12.533Z,7.47
2019-05-23T09:54:16.484Z,6.65
2019-05-23T09:59:20.385Z,5.30
2019-05-23T10:04:24.208Z,20.95
2019-05-23T10:09:28.210Z,8.45
2019-05-23T10:14:33.617Z,5.80
2019-05-23T10:19:37.805Z,9.40
2019-05-23T10:24:41.750Z,15.30
2019-05-23T10:29:45.575Z,47.45
2019-05-23T10:34:49.504Z,6.50
2019-05-23T10:39:55.260Z,8.15
2019-05-23T10:44:59.107Z,34.13
2019-05-23T10:50:07.743Z,8.05
2019-05-23T10:55:09.986Z,9.53
2019-05-23T11:00:15.920Z,7.60
2019-05-23T11:05:20.900Z,6.00
2019-05-23T11:10:25.289Z,7.60
2019-05-23T11:15:29.224Z,6.08
2019-05-23T11:20:35.961Z,8.08
2019-05-23T11:25:40.829Z,8.43
2019-05-23T11:30:55.629Z,9.83
2019-05-23T11:35:59.490Z,13.22
2019-05-23T11:41:04.020Z,10.78
2019-05-23T11:46:19.039Z,27.25
2019-05-23T11:51:25.505Z,47.38
2019-05-23T11:56:28.549Z,14.30
2019-05-23T12:01:36.815Z,16.87
2019-05-23T12:06:54.465Z,9.43
2019-05-23T12:11:47.601Z,11.28
2019-05-23T12:16:52.208Z,14.07
2019-05-23T12:21:56.675Z,15.45
2019-05-23T12:27:00.554Z,12.35
2019-05-23T12:32:06.429Z,14.38
2019-05-23T12:37:19.966Z,16.55
2019-05-23T12:42:16.022Z,17.77
2019-05-23T12:47:21.529Z,8.83
2019-05-23T12:52:25.889Z,24.45
2019-05-23T12:57:30.175Z,19.52
2019-05-23T13:02:34.813Z,16.30
2019-05-23T13:07:39.156Z,16.48
2019-05-23T13:12:42.975Z,15.55
2019-05-23T13:17:47.254Z,23.47
2019-05-23T13:22:51.281Z,22.37
2019-05-23T13:27:58.621Z,16.07
2019-05-23T13:33:03.730Z,13.78
2019-05-23T13:38:06.947Z,14.00
2019-05-23T13:43:11.206Z,14.10
2019-05-23T13:48:15.129Z,14.85
2019-05-23T13:53:21.018Z,12.58
2019-05-23T13:58:25.482Z,16.87
2019-05-23T14:03:32.188Z,19.25
2019-05-23T14:08:36.094Z,15.98
2019-05-23T14:13:40.072Z,16.95
2019-05-23T14:18:44.414Z,14.68
2019-05-23T14:23:49.799Z,22.50
2019-05-23T14:28:55.269Z,16.25
2019-05-23T14:34:03.453Z,15.15
2019-05-23T14:39:11.236Z,12.78
2019-05-23T14:44:15.462Z,45.00
2019-05-23T14:49:23.580Z,20.48
2019-05-23T14:54:33.463Z,16.90
2019-05-23T14:59:37.403Z,15.10
2019-05-23T15:04:41.298Z,14.03
2019-05-23T15:09:45.158Z,14.47
2019-05-23T15:20:40.746Z,16.00
2019-05-23T15:25:46.245Z,18.35
2019-05-23T15:30:50.238Z,14.60
2019-05-23T15:35:54.477Z,15.93
2019-05-23T15:40:58.282Z,15.40
2019-05-23T15:46:02.112Z,15.72
2019-05-23T15:51:07.662Z,15.55
2019-05-23T15:56:26.740Z,17.48
2019-05-23T16:01:32.663Z,17.73
2019-05-23T16:06:36.560Z,18.25
2019-05-23T16:11:43.249Z,22.05
2019-05-23T16:16:47.700Z,18.17
2019-05-23T16:21:51.594Z,18.62
2019-05-23T16:26:56.991Z,17.85
2019-05-23T16:32:00.925Z,17.98
2019-05-23T16:37:04.844Z,18.80
2019-05-23T16:42:10.270Z,18.48
2019-05-23T16:47:14.154Z,19.48
2019-05-23T16:52:18.288Z,20.00
2019-05-23T16:57:32.901Z,23.42
2019-05-23T17:02:55.021Z,24.72
2019-05-23T17:08:03.995Z,21.27
2019-05-23T17:13:10.455Z,24.23
2019-05-23T17:18:16.000Z,24.77
2019-05-23T17:23:41.433Z,20.23
2019-05-23T17:28:49.687Z,22.40
2019-05-23T17:38:57.311Z,22.62
2019-05-23T17:44:01.373Z,25.52
2019-05-23T17:49:05.827Z,25.48
2019-05-23T17:54:14.352Z,22.20
2019-05-23T17:59:18.236Z,21.10
2019-05-23T18:04:23.092Z,19.70
2019-05-23T18:09:27.712Z,26.23
2019-05-23T18:14:31.724Z,24.72
2019-05-23T18:19:37.214Z,20.95
2019-05-23T18:24:44.787Z,16.67
2019-05-23T18:29:48.693Z,16.97
2019-05-23T18:34:53.220Z,18.77
2019-05-23T18:39:57.192Z,16.60
2019-05-23T18:45:02.396Z,19.48
2019-05-23T18:50:08.982Z,18.60
2019-05-23T18:55:16.696Z,17.25
2019-05-23T19:00:23.484Z,21.05
2019-05-23T19:05:28.386Z,19.12
2019-05-23T19:10:32.792Z,21.42
2019-05-23T19:15:36.776Z,20.43
2019-05-23T19:20:40.809Z,18.67
2019-05-23T19:25:45.793Z,17.37
2019-05-23T19:30:49.914Z,16.45
2019-05-23T19:35:54.008Z,17.90
2019-05-23T19:40:58.470Z,18.07
2019-05-23T19:46:02.483Z,18.95
2019-05-23T19:51:10.261Z,17.60
2019-05-23T19:56:14.251Z,17.67
2019-05-23T20:01:18.662Z,17.48
2019-05-23T20:06:22.404Z,17.82
2019-05-23T20:11:29.243Z,16.95
2019-05-23T20:16:33.872Z,18.52
2019-05-23T20:21:37.734Z,15.35
2019-05-23T20:26:41.652Z,16.12
2019-05-23T20:31:48.472Z,14.33
2019-05-23T20:36:51.177Z,13.70
2019-05-23T20:42:10.211Z,12.18
2019-05-23T20:47:00.710Z,13.15
2019-05-23T20:52:04.921Z,10.50
2019-05-23T20:57:11.894Z,9.03
2019-05-23T21:02:16.043Z,9.45
2019-05-23T21:07:20.024Z,12.33
2019-05-23T21:12:30.165Z,8.48
2019-05-23T21:17:31.494Z,10.15
2019-05-23T21:22:35.238Z,9.95
2019-05-23T21:27:39.206Z,8.73
2019-05-23T21:32:43.018Z,8.30
2019-05-23T21:37:46.946Z,9.03
2019-05-23T21:42:50.829Z,10.13
2019-05-23T21:47:54.812Z,14.07
2019-05-23T21:52:58.643Z,9.28
2019-05-23T21:58:02.513Z,8.65
2019-05-23T22:03:08.474Z,8.78
2019-05-23T22:08:12.388Z,10.23
2019-05-23T22:13:19.822Z,10.28
2019-05-23T22:18:22.962Z,8.40
2019-05-23T22:23:26.975Z,10.75
2019-05-23T22:28:30.870Z,10.53
2019-05-23T22:33:36.602Z,12.63
2019-05-23T22:38:40.440Z,10.85
2019-05-23T22:43:44.359Z,10.98
2019-05-23T22:48:48.203Z,10.23
2019-05-23T22:53:52.067Z,9.70
2019-05-23T22:58:55.946Z,10.93
2019-05-23T23:03:59.975Z,11.18
2019-05-23T23:09:05.592Z,11.03
2019-05-23T23:14:09.482Z,10.85
2019-05-23T23:19:13.449Z,10.20
2019-05-23T23:24:17.261Z,9.65
2019-05-23T23:29:21.120Z,9.15
2019-05-23T23:34:25.382Z,9.28
2019-05-23T23:39:29.223Z,9.38
2019-05-23T23:44:35.160Z,9.55
2019-05-23T23:49:57.125Z,7.97
2019-05-23T23:55:19.050Z,8.23
